This is the latest recevied weather packets stored in our database for station/object W5DRO-13. If no packets are shown the sender has not sent any weather packets the latest 10 day(s).
| Time | Temp. | Humidity | Pressure | Rain* | Wind** | Luminosity | Snow |
|---|---|---|---|---|---|---|---|
| 1777739983 | 17.22° C | 54% | 1023.1 hPa | 0 mm | - | - | - |
| 1777739679 | 17.22° C | 57% | 1023 hPa | 0 mm | - | - | - |
| 1777739377 | 17.22° C | 59% | 1023.1 hPa | 0 mm | - | - | - |
| 1777739074 | 16.67° C | 58% | 1022.8 hPa | 0 mm | - | - | - |
| 1777738771 | 16.67° C | 62% | 1022.7 hPa | 0 mm | - | - | - |
| 1777738467 | 16.67° C | 60% | 1022.8 hPa | 0 mm | - | - | - |
| 1777738165 | 16.67° C | 61% | 1022.7 hPa | 0 mm | - | - | - |
| 1777737863 | 17.22° C | 58% | 1022.9 hPa | 0 mm | - | - | - |
| 1777737561 | 17.22° C | 58% | 1022.7 hPa | 0 mm | - | - | - |
| 1777737260 | 17.22° C | 55% | 1022.6 hPa | 0 mm | - | - | - |
| 1777736955 | 16.67° C | 55% | 1022.7 hPa | 0 mm | - | - | - |
| 1777736049 | 16.11° C | 68% | 1022.7 hPa | 0 mm | - | - | - |
| 1777735746 | 16.11° C | 68% | 1022.5 hPa | 0 mm | - | - | - |
| 1777735444 | 16.11° C | 65% | 1022.7 hPa | 0 mm | - | - | - |
| 1777735141 | 15.56° C | 69% | 1022.7 hPa | 0 mm | - | - | - |
| 1777734837 | 15.56° C | 64% | 1022.6 hPa | 0 mm | - | - | - |
| 1777734535 | 15.56° C | 64% | 1022.5 hPa | 0 mm | - | - | - |
| 1777734231 | 15.56° C | 64% | 1022.8 hPa | 0 mm | - | - | - |
| 1777733927 | 15.56° C | 61% | 1022.8 hPa | 0 mm | - | - | - |
| 1777733624 | 15° C | 65% | 1022.7 hPa | 0 mm | - | - | - |
| 1777733321 | 14.44° C | 68% | 1022.9 hPa | 0 mm | - | - | - |
| 1777733018 | 14.44° C | 68% | 1022.8 hPa | 0 mm | - | - | - |
| 1777732714 | 14.44° C | 69% | 1022.9 hPa | 0 mm | - | - | - |
| 1777732411 | 14.44° C | 70% | 1022.7 hPa | 0 mm | - | - | - |
| 1777732109 | 15° C | 70% | 1022.6 hPa | 0 mm | - | - | - |
* Rain latest hour (hover to see other rain measurements)
** Current wind speed in m/s (hover to see current wind gust speed)